sensor_id;sensor_type;location;lat;lon;timestamp;P1;durP1;ratioP1;P2;durP2;ratioP2
7432;SDS011;32233;49.500;7.764;2023-08-01T00:01:05;13.50;;;5.90;;
7432;SDS011;32233;49.500;7.764;2023-08-01T00:03:32;11.53;;;5.90;;
7432;SDS011;32233;49.500;7.764;2023-08-01T00:05:59;18.97;;;6.70;;
7432;SDS011;32233;49.500;7.764;2023-08-01T00:08:25;12.33;;;5.93;;
7432;SDS011;32233;49.500;7.764;2023-08-01T00:10:52;13.73;;;6.17;;
7432;SDS011;32233;49.500;7.764;2023-08-01T00:13:18;12.53;;;5.90;;
7432;SDS011;32233;49.500;7.764;2023-08-01T00:15:45;11.90;;;6.37;;
7432;SDS011;32233;49.500;7.764;2023-08-01T00:18:30;10.97;;;5.80;;
7432;SDS011;32233;49.500;7.764;2023-08-01T00:20:56;12.37;;;6.00;;
7432;SDS011;32233;49.500;7.764;2023-08-01T00:23:23;16.43;;;7.07;;
7432;SDS011;32233;49.500;7.764;2023-08-01T00:25:50;14.77;;;7.37;;
7432;SDS011;32233;49.500;7.764;2023-08-01T00:28:18;10.33;;;5.80;;
7432;SDS011;32233;49.500;7.764;2023-08-01T00:30:45;14.77;;;6.67;;
7432;SDS011;32233;49.500;7.764;2023-08-01T00:33:11;12.20;;;6.17;;
7432;SDS011;32233;49.500;7.764;2023-08-01T00:35:38;11.63;;;5.83;;
7432;SDS011;32233;49.500;7.764;2023-08-01T00:38:04;11.03;;;5.80;;
7432;SDS011;32233;49.500;7.764;2023-08-01T00:40:31;10.60;;;6.03;;
7432;SDS011;32233;49.500;7.764;2023-08-01T00:42:58;11.07;;;6.30;;
7432;SDS011;32233;49.500;7.764;2023-08-01T00:45:26;10.30;;;5.70;;
7432;SDS011;32233;49.500;7.764;2023-08-01T00:47:53;10.97;;;6.00;;
7432;SDS011;32233;49.500;7.764;2023-08-01T00:50:21;12.20;;;5.80;;
7432;SDS011;32233;49.500;7.764;2023-08-01T00:52:48;11.03;;;5.73;;
7432;SDS011;32233;49.500;7.764;2023-08-01T00:55:18;11.17;;;5.90;;
7432;SDS011;32233;49.500;7.764;2023-08-01T00:57:46;11.20;;;6.30;;
7432;SDS011;32233;49.500;7.764;2023-08-01T01:00:19;9.90;;;5.53;;
7432;SDS011;32233;49.500;7.764;2023-08-01T01:02:46;11.03;;;6.00;;
7432;SDS011;32233;49.500;7.764;2023-08-01T01:05:13;10.33;;;5.37;;
7432;SDS011;32233;49.500;7.764;2023-08-01T01:07:41;9.40;;;5.60;;
7432;SDS011;32233;49.500;7.764;2023-08-01T01:10:10;11.83;;;5.80;;
7432;SDS011;32233;49.500;7.764;2023-08-01T01:12:36;10.90;;;5.33;;
7432;SDS011;32233;49.500;7.764;2023-08-01T01:15:03;13.37;;;5.83;;
7432;SDS011;32233;49.500;7.764;2023-08-01T01:17:31;10.90;;;5.60;;
7432;SDS011;32233;49.500;7.764;2023-08-01T01:19:58;9.17;;;5.13;;
7432;SDS011;32233;49.500;7.764;2023-08-01T01:22:25;15.80;;;5.57;;
7432;SDS011;32233;49.500;7.764;2023-08-01T01:24:52;10.20;;;5.77;;
7432;SDS011;32233;49.500;7.764;2023-08-01T01:27:22;12.93;;;6.53;;
7432;SDS011;32233;49.500;7.764;2023-08-01T01:29:49;11.70;;;5.90;;
7432;SDS011;32233;49.500;7.764;2023-08-01T01:32:16;15.47;;;6.93;;
7432;SDS011;32233;49.500;7.764;2023-08-01T01:34:44;15.03;;;6.97;;
7432;SDS011;32233;49.500;7.764;2023-08-01T01:37:11;13.00;;;6.53;;
7432;SDS011;32233;49.500;7.764;2023-08-01T01:39:38;15.53;;;6.20;;
7432;SDS011;32233;49.500;7.764;2023-08-01T01:42:04;11.77;;;6.67;;
7432;SDS011;32233;49.500;7.764;2023-08-01T01:44:31;13.80;;;6.57;;
7432;SDS011;32233;49.500;7.764;2023-08-01T01:46:58;12.97;;;6.47;;
7432;SDS011;32233;49.500;7.764;2023-08-01T01:49:26;10.27;;;6.07;;
7432;SDS011;32233;49.500;7.764;2023-08-01T01:51:52;11.90;;;6.23;;
7432;SDS011;32233;49.500;7.764;2023-08-01T01:54:19;11.83;;;5.80;;
7432;SDS011;32233;49.500;7.764;2023-08-01T01:56:46;14.23;;;5.93;;
7432;SDS011;32233;49.500;7.764;2023-08-01T01:59:13;12.00;;;6.63;;
7432;SDS011;32233;49.500;7.764;2023-08-01T02:01:39;10.63;;;5.50;;
7432;SDS011;32233;49.500;7.764;2023-08-01T02:04:06;14.00;;;6.80;;
7432;SDS011;32233;49.500;7.764;2023-08-01T02:06:34;15.23;;;6.33;;
7432;SDS011;32233;49.500;7.764;2023-08-01T02:09:01;12.83;;;5.70;;
7432;SDS011;32233;49.500;7.764;2023-08-01T02:11:29;15.87;;;6.17;;
7432;SDS011;32233;49.500;7.764;2023-08-01T02:13:56;18.47;;;6.77;;
7432;SDS011;32233;49.500;7.764;2023-08-01T02:16:23;10.43;;;6.10;;
7432;SDS011;32233;49.500;7.764;2023-08-01T02:18:50;16.80;;;6.53;;
7432;SDS011;32233;49.500;7.764;2023-08-01T02:21:17;11.73;;;6.33;;
7432;SDS011;32233;49.500;7.764;2023-08-01T02:23:44;12.67;;;6.13;;
7432;SDS011;32233;49.500;7.764;2023-08-01T02:26:11;11.73;;;6.00;;
7432;SDS011;32233;49.500;7.764;2023-08-01T02:28:38;10.53;;;6.27;;
7432;SDS011;32233;49.500;7.764;2023-08-01T02:31:06;13.23;;;6.67;;
7432;SDS011;32233;49.500;7.764;2023-08-01T02:33:34;10.27;;;6.00;;
7432;SDS011;32233;49.500;7.764;2023-08-01T02:36:01;13.13;;;6.70;;
7432;SDS011;32233;49.500;7.764;2023-08-01T02:38:28;12.73;;;6.13;;
7432;SDS011;32233;49.500;7.764;2023-08-01T02:40:56;11.27;;;6.50;;
7432;SDS011;32233;49.500;7.764;2023-08-01T02:43:23;12.60;;;6.07;;
7432;SDS011;32233;49.500;7.764;2023-08-01T02:45:50;11.10;;;6.53;;
7432;SDS011;32233;49.500;7.764;2023-08-01T02:48:16;12.10;;;6.37;;
7432;SDS011;32233;49.500;7.764;2023-08-01T02:50:43;12.93;;;6.40;;
7432;SDS011;32233;49.500;7.764;2023-08-01T02:53:09;12.53;;;6.93;;
7432;SDS011;32233;49.500;7.764;2023-08-01T02:55:36;9.53;;;5.77;;
7432;SDS011;32233;49.500;7.764;2023-08-01T02:58:03;9.90;;;5.67;;
7432;SDS011;32233;49.500;7.764;2023-08-01T03:00:30;8.83;;;5.10;;
7432;SDS011;32233;49.500;7.764;2023-08-01T03:02:57;9.90;;;5.43;;
7432;SDS011;32233;49.500;7.764;2023-08-01T03:05:25;9.13;;;5.13;;
7432;SDS011;32233;49.500;7.764;2023-08-01T03:07:51;10.33;;;5.23;;
7432;SDS011;32233;49.500;7.764;2023-08-01T03:10:19;13.40;;;5.37;;
7432;SDS011;32233;49.500;7.764;2023-08-01T03:13:02;9.63;;;5.73;;
7432;SDS011;32233;49.500;7.764;2023-08-01T03:15:29;10.23;;;5.37;;
7432;SDS011;32233;49.500;7.764;2023-08-01T03:17:55;13.73;;;5.90;;
7432;SDS011;32233;49.500;7.764;2023-08-01T03:20:23;11.33;;;6.00;;
7432;SDS011;32233;49.500;7.764;2023-08-01T03:22:50;8.67;;;5.50;;
7432;SDS011;32233;49.500;7.764;2023-08-01T03:25:16;15.60;;;6.60;;
7432;SDS011;32233;49.500;7.764;2023-08-01T03:27:43;13.87;;;5.80;;
7432;SDS011;32233;49.500;7.764;2023-08-01T03:30:10;8.60;;;5.67;;
7432;SDS011;32233;49.500;7.764;2023-08-01T03:32:37;14.47;;;6.17;;
7432;SDS011;32233;49.500;7.764;2023-08-01T03:35:04;11.90;;;5.67;;
7432;SDS011;32233;49.500;7.764;2023-08-01T03:37:31;12.33;;;6.40;;
7432;SDS011;32233;49.500;7.764;2023-08-01T03:39:58;13.20;;;5.80;;
7432;SDS011;32233;49.500;7.764;2023-08-01T03:42:24;7.07;;;4.97;;
7432;SDS011;32233;49.500;7.764;2023-08-01T03:44:51;8.23;;;5.10;;
7432;SDS011;32233;49.500;7.764;2023-08-01T03:47:18;8.60;;;5.10;;
7432;SDS011;32233;49.500;7.764;2023-08-01T03:49:45;11.13;;;5.10;;
7432;SDS011;32233;49.500;7.764;2023-08-01T03:52:13;10.93;;;4.73;;
7432;SDS011;32233;49.500;7.764;2023-08-01T03:54:40;11.93;;;5.30;;
7432;SDS011;32233;49.500;7.764;2023-08-01T03:57:06;11.23;;;4.70;;
7432;SDS011;32233;49.500;7.764;2023-08-01T03:59:33;13.30;;;5.60;;
7432;SDS011;32233;49.500;7.764;2023-08-01T04:02:03;12.73;;;5.03;;
7432;SDS011;32233;49.500;7.764;2023-08-01T04:04:30;10.20;;;5.13;;
7432;SDS011;32233;49.500;7.764;2023-08-01T04:06:57;8.33;;;4.80;;
7432;SDS011;32233;49.500;7.764;2023-08-01T04:09:24;10.90;;;4.67;;
7432;SDS011;32233;49.500;7.764;2023-08-01T04:11:51;11.70;;;5.03;;
7432;SDS011;32233;49.500;7.764;2023-08-01T04:14:17;10.37;;;5.20;;
7432;SDS011;32233;49.500;7.764;2023-08-01T04:16:44;11.37;;;5.43;;
7432;SDS011;32233;49.500;7.764;2023-08-01T04:19:10;8.30;;;4.93;;
7432;SDS011;32233;49.500;7.764;2023-08-01T04:21:37;10.47;;;6.23;;
7432;SDS011;32233;49.500;7.764;2023-08-01T04:24:03;10.30;;;5.73;;
7432;SDS011;32233;49.500;7.764;2023-08-01T04:26:30;10.17;;;5.83;;
7432;SDS011;32233;49.500;7.764;2023-08-01T04:28:59;10.70;;;6.20;;
7432;SDS011;32233;49.500;7.764;2023-08-01T04:31:25;12.17;;;7.00;;
7432;SDS011;32233;49.500;7.764;2023-08-01T04:33:52;12.60;;;6.60;;
7432;SDS011;32233;49.500;7.764;2023-08-01T04:36:18;12.47;;;7.47;;
7432;SDS011;32233;49.500;7.764;2023-08-01T04:38:45;13.50;;;7.17;;
7432;SDS011;32233;49.500;7.764;2023-08-01T04:41:12;13.13;;;7.20;;
7432;SDS011;32233;49.500;7.764;2023-08-01T04:43:39;16.10;;;7.77;;
7432;SDS011;32233;49.500;7.764;2023-08-01T04:46:05;15.53;;;7.37;;
7432;SDS011;32233;49.500;7.764;2023-08-01T04:48:32;13.03;;;7.43;;
7432;SDS011;32233;49.500;7.764;2023-08-01T04:50:58;15.90;;;7.43;;
7432;SDS011;32233;49.500;7.764;2023-08-01T04:53:25;10.33;;;6.90;;
7432;SDS011;32233;49.500;7.764;2023-08-01T04:55:51;13.63;;;7.70;;
7432;SDS011;32233;49.500;7.764;2023-08-01T04:58:18;15.40;;;7.90;;
7432;SDS011;32233;49.500;7.764;2023-08-01T05:00:44;16.63;;;7.37;;
7432;SDS011;32233;49.500;7.764;2023-08-01T05:03:11;10.63;;;6.40;;
7432;SDS011;32233;49.500;7.764;2023-08-01T05:05:39;9.83;;;5.90;;
7432;SDS011;32233;49.500;7.764;2023-08-01T05:08:05;14.10;;;6.37;;
7432;SDS011;32233;49.500;7.764;2023-08-01T05:10:32;13.20;;;6.60;;
7432;SDS011;32233;49.500;7.764;2023-08-01T05:12:59;10.47;;;5.67;;
7432;SDS011;32233;49.500;7.764;2023-08-01T05:15:25;10.00;;;6.10;;
7432;SDS011;32233;49.500;7.764;2023-08-01T05:17:54;9.97;;;4.90;;
7432;SDS011;32233;49.500;7.764;2023-08-01T05:20:22;8.63;;;4.93;;
7432;SDS011;32233;49.500;7.764;2023-08-01T05:22:48;7.60;;;4.77;;
7432;SDS011;32233;49.500;7.764;2023-08-01T05:25:15;8.67;;;4.67;;
7432;SDS011;32233;49.500;7.764;2023-08-01T05:27:41;6.57;;;4.60;;
7432;SDS011;32233;49.500;7.764;2023-08-01T05:30:10;7.83;;;4.50;;
7432;SDS011;32233;49.500;7.764;2023-08-01T05:32:37;9.20;;;4.47;;
7432;SDS011;32233;49.500;7.764;2023-08-01T05:35:06;6.37;;;3.90;;
7432;SDS011;32233;49.500;7.764;2023-08-01T05:37:33;8.67;;;4.60;;
7432;SDS011;32233;49.500;7.764;2023-08-01T05:39:59;6.30;;;3.40;;
7432;SDS011;32233;49.500;7.764;2023-08-01T05:42:26;3.63;;;3.17;;
7432;SDS011;32233;49.500;7.764;2023-08-01T05:44:53;4.93;;;3.00;;
7432;SDS011;32233;49.500;7.764;2023-08-01T05:47:19;7.93;;;3.70;;
7432;SDS011;32233;49.500;7.764;2023-08-01T05:49:46;9.23;;;3.37;;
7432;SDS011;32233;49.500;7.764;2023-08-01T05:52:12;9.53;;;4.13;;
7432;SDS011;32233;49.500;7.764;2023-08-01T05:54:39;5.97;;;3.27;;
7432;SDS011;32233;49.500;7.764;2023-08-01T05:57:05;5.30;;;2.97;;
7432;SDS011;32233;49.500;7.764;2023-08-01T05:59:32;7.60;;;3.43;;
7432;SDS011;32233;49.500;7.764;2023-08-01T06:01:59;6.23;;;3.27;;
7432;SDS011;32233;49.500;7.764;2023-08-01T06:04:26;6.73;;;2.47;;
7432;SDS011;32233;49.500;7.764;2023-08-01T06:06:53;4.57;;;2.63;;
7432;SDS011;32233;49.500;7.764;2023-08-01T06:09:19;4.07;;;2.67;;
7432;SDS011;32233;49.500;7.764;2023-08-01T06:11:49;5.03;;;2.57;;
7432;SDS011;32233;49.500;7.764;2023-08-01T06:14:16;5.00;;;2.30;;
7432;SDS011;32233;49.500;7.764;2023-08-01T06:16:43;3.83;;;2.23;;
7432;SDS011;32233;49.500;7.764;2023-08-01T06:19:10;3.47;;;2.53;;
7432;SDS011;32233;49.500;7.764;2023-08-01T06:21:37;4.13;;;2.00;;
7432;SDS011;32233;49.500;7.764;2023-08-01T06:24:04;2.13;;;1.70;;
7432;SDS011;32233;49.500;7.764;2023-08-01T06:26:30;1.53;;;1.30;;
7432;SDS011;32233;49.500;7.764;2023-08-01T06:28:57;2.93;;;1.53;;
7432;SDS011;32233;49.500;7.764;2023-08-01T06:31:23;2.93;;;1.30;;
7432;SDS011;32233;49.500;7.764;2023-08-01T06:33:50;1.83;;;1.00;;
7432;SDS011;32233;49.500;7.764;2023-08-01T06:36:17;2.17;;;1.30;;
7432;SDS011;32233;49.500;7.764;2023-08-01T06:38:43;1.67;;;1.20;;
7432;SDS011;32233;49.500;7.764;2023-08-01T06:41:10;2.70;;;0.83;;
7432;SDS011;32233;49.500;7.764;2023-08-01T06:43:37;2.07;;;0.90;;
7432;SDS011;32233;49.500;7.764;2023-08-01T06:46:04;0.77;;;0.70;;
7432;SDS011;32233;49.500;7.764;2023-08-01T06:48:31;2.00;;;0.80;;
7432;SDS011;32233;49.500;7.764;2023-08-01T06:51:01;1.57;;;0.73;;
7432;SDS011;32233;49.500;7.764;2023-08-01T06:53:29;1.60;;;0.80;;
7432;SDS011;32233;49.500;7.764;2023-08-01T06:55:56;1.80;;;0.60;;
7432;SDS011;32233;49.500;7.764;2023-08-01T06:58:22;1.10;;;0.60;;
7432;SDS011;32233;49.500;7.764;2023-08-01T07:00:49;0.67;;;0.50;;
7432;SDS011;32233;49.500;7.764;2023-08-01T07:03:15;1.70;;;0.60;;
7432;SDS011;32233;49.500;7.764;2023-08-01T07:05:42;1.67;;;0.70;;
7432;SDS011;32233;49.500;7.764;2023-08-01T07:08:09;0.60;;;0.57;;
7432;SDS011;32233;49.500;7.764;2023-08-01T07:10:36;0.70;;;0.60;;
7432;SDS011;32233;49.500;7.764;2023-08-01T07:13:03;0.40;;;0.40;;
7432;SDS011;32233;49.500;7.764;2023-08-01T07:15:31;1.17;;;0.60;;
7432;SDS011;32233;49.500;7.764;2023-08-01T07:17:58;0.60;;;0.60;;
7432;SDS011;32233;49.500;7.764;2023-08-01T07:20:25;1.67;;;0.60;;
7432;SDS011;32233;49.500;7.764;2023-08-01T07:22:52;0.50;;;0.50;;
7432;SDS011;32233;49.500;7.764;2023-08-01T07:25:19;0.83;;;0.80;;
7432;SDS011;32233;49.500;7.764;2023-08-01T07:27:45;0.63;;;0.63;;
7432;SDS011;32233;49.500;7.764;2023-08-01T07:30:12;0.70;;;0.70;;
7432;SDS011;32233;49.500;7.764;2023-08-01T07:32:39;1.80;;;0.80;;
7432;SDS011;32233;49.500;7.764;2023-08-01T07:35:09;0.83;;;0.80;;
7432;SDS011;32233;49.500;7.764;2023-08-01T07:37:36;1.33;;;0.90;;
7432;SDS011;32233;49.500;7.764;2023-08-01T07:40:07;1.40;;;1.00;;
7432;SDS011;32233;49.500;7.764;2023-08-01T07:42:34;1.10;;;1.00;;
7432;SDS011;32233;49.500;7.764;2023-08-01T07:45:01;2.00;;;1.10;;
7432;SDS011;32233;49.500;7.764;2023-08-01T07:47:27;3.53;;;1.00;;
7432;SDS011;32233;49.500;7.764;2023-08-01T07:49:54;3.83;;;1.00;;
7432;SDS011;32233;49.500;7.764;2023-08-01T07:52:20;2.00;;;0.67;;
7432;SDS011;32233;49.500;7.764;2023-08-01T07:54:47;1.37;;;0.67;;
7432;SDS011;32233;49.500;7.764;2023-08-01T07:57:14;1.60;;;0.90;;
7432;SDS011;32233;49.500;7.764;2023-08-01T07:59:40;0.90;;;0.80;;
7432;SDS011;32233;49.500;7.764;2023-08-01T08:02:07;1.20;;;0.97;;
7432;SDS011;32233;49.500;7.764;2023-08-01T08:04:33;0.97;;;0.97;;
7432;SDS011;32233;49.500;7.764;2023-08-01T08:07:00;2.60;;;1.20;;
7432;SDS011;32233;49.500;7.764;2023-08-01T08:09:27;1.77;;;0.90;;
7432;SDS011;32233;49.500;7.764;2023-08-01T08:11:53;1.50;;;0.77;;
7432;SDS011;32233;49.500;7.764;2023-08-01T08:14:20;1.70;;;0.97;;
7432;SDS011;32233;49.500;7.764;2023-08-01T08:16:50;0.80;;;0.80;;
7432;SDS011;32233;49.500;7.764;2023-08-01T08:19:17;2.47;;;0.77;;
7432;SDS011;32233;49.500;7.764;2023-08-01T08:21:43;0.73;;;0.70;;
7432;SDS011;32233;49.500;7.764;2023-08-01T08:24:10;0.60;;;0.60;;
7432;SDS011;32233;49.500;7.764;2023-08-01T08:26:36;0.70;;;0.60;;
7432;SDS011;32233;49.500;7.764;2023-08-01T08:29:05;1.17;;;0.50;;
7432;SDS011;32233;49.500;7.764;2023-08-01T08:31:32;1.60;;;0.50;;
7432;SDS011;32233;49.500;7.764;2023-08-01T08:33:59;0.87;;;0.60;;
7432;SDS011;32233;49.500;7.764;2023-08-01T08:36:25;0.60;;;0.50;;
7432;SDS011;32233;49.500;7.764;2023-08-01T08:38:52;0.60;;;0.50;;
7432;SDS011;32233;49.500;7.764;2023-08-01T08:41:22;1.03;;;0.63;;
7432;SDS011;32233;49.500;7.764;2023-08-01T08:43:53;0.60;;;0.60;;
7432;SDS011;32233;49.500;7.764;2023-08-01T08:46:23;0.50;;;0.50;;
7432;SDS011;32233;49.500;7.764;2023-08-01T08:48:56;0.70;;;0.50;;
7432;SDS011;32233;49.500;7.764;2023-08-01T08:51:24;1.97;;;0.60;;
7432;SDS011;32233;49.500;7.764;2023-08-01T08:53:53;2.07;;;0.60;;
7432;SDS011;32233;49.500;7.764;2023-08-01T08:56:20;1.30;;;0.70;;
7432;SDS011;32233;49.500;7.764;2023-08-01T08:58:48;2.93;;;0.70;;
7432;SDS011;32233;49.500;7.764;2023-08-01T09:01:17;0.87;;;0.60;;
7432;SDS011;32233;49.500;7.764;2023-08-01T09:03:44;0.80;;;0.73;;
7432;SDS011;32233;49.500;7.764;2023-08-01T09:06:12;1.27;;;1.00;;
7432;SDS011;32233;49.500;7.764;2023-08-01T09:08:40;2.83;;;0.80;;
7432;SDS011;32233;49.500;7.764;2023-08-01T09:11:10;2.63;;;0.77;;
7432;SDS011;32233;49.500;7.764;2023-08-01T09:13:37;0.80;;;0.77;;
7432;SDS011;32233;49.500;7.764;2023-08-01T09:16:04;1.20;;;1.10;;
7432;SDS011;32233;49.500;7.764;2023-08-01T09:18:33;1.20;;;0.80;;
7432;SDS011;32233;49.500;7.764;2023-08-01T09:21:00;1.53;;;0.80;;
7432;SDS011;32233;49.500;7.764;2023-08-01T09:23:30;2.47;;;0.90;;
7432;SDS011;32233;49.500;7.764;2023-08-01T09:25:57;1.80;;;0.77;;
7432;SDS011;32233;49.500;7.764;2023-08-01T09:28:26;2.13;;;0.90;;
7432;SDS011;32233;49.500;7.764;2023-08-01T09:30:54;0.80;;;0.80;;
7432;SDS011;32233;49.500;7.764;2023-08-01T09:33:23;1.10;;;1.00;;
7432;SDS011;32233;49.500;7.764;2023-08-01T09:35:51;3.13;;;0.97;;
7432;SDS011;32233;49.500;7.764;2023-08-01T09:38:19;1.80;;;0.77;;
7432;SDS011;32233;49.500;7.764;2023-08-01T09:40:46;1.67;;;0.70;;
7432;SDS011;32233;49.500;7.764;2023-08-01T09:43:13;0.97;;;0.80;;
7432;SDS011;32233;49.500;7.764;2023-08-01T09:45:50;1.60;;;0.80;;
7432;SDS011;32233;49.500;7.764;2023-08-01T09:48:25;1.40;;;0.80;;
7432;SDS011;32233;49.500;7.764;2023-08-01T09:51:04;2.00;;;0.80;;
7432;SDS011;32233;49.500;7.764;2023-08-01T09:53:32;1.87;;;0.87;;
7432;SDS011;32233;49.500;7.764;2023-08-01T09:56:00;1.90;;;0.70;;
7432;SDS011;32233;49.500;7.764;2023-08-01T09:58:34;1.63;;;1.07;;
7432;SDS011;32233;49.500;7.764;2023-08-01T10:01:01;1.20;;;0.80;;
7432;SDS011;32233;49.500;7.764;2023-08-01T10:03:28;2.10;;;0.90;;
7432;SDS011;32233;49.500;7.764;2023-08-01T10:05:56;1.50;;;0.80;;
7432;SDS011;32233;49.500;7.764;2023-08-01T10:08:24;1.10;;;0.80;;
7432;SDS011;32233;49.500;7.764;2023-08-01T10:10:51;1.40;;;0.80;;
7432;SDS011;32233;49.500;7.764;2023-08-01T10:13:23;3.23;;;0.90;;
7432;SDS011;32233;49.500;7.764;2023-08-01T10:15:56;1.57;;;0.73;;
7432;SDS011;32233;49.500;7.764;2023-08-01T10:18:23;0.97;;;0.77;;
7432;SDS011;32233;49.500;7.764;2023-08-01T10:20:51;2.37;;;0.87;;
7432;SDS011;32233;49.500;7.764;2023-08-01T10:23:18;1.47;;;1.10;;
7432;SDS011;32233;49.500;7.764;2023-08-01T10:25:45;1.40;;;0.90;;
7432;SDS011;32233;49.500;7.764;2023-08-01T10:28:12;2.23;;;0.77;;
7432;SDS011;32233;49.500;7.764;2023-08-01T10:30:39;2.63;;;0.80;;
7432;SDS011;32233;49.500;7.764;2023-08-01T10:33:06;1.43;;;0.90;;
7432;SDS011;32233;49.500;7.764;2023-08-01T10:35:58;2.00;;;0.80;;
7432;SDS011;32233;49.500;7.764;2023-08-01T10:38:27;1.00;;;0.80;;
7432;SDS011;32233;49.500;7.764;2023-08-01T10:40:54;1.83;;;1.00;;
7432;SDS011;32233;49.500;7.764;2023-08-01T10:43:21;2.30;;;0.90;;
7432;SDS011;32233;49.500;7.764;2023-08-01T10:45:59;1.80;;;1.10;;
7432;SDS011;32233;49.500;7.764;2023-08-01T10:48:28;1.10;;;0.80;;
7432;SDS011;32233;49.500;7.764;2023-08-01T10:50:56;2.03;;;0.90;;
7432;SDS011;32233;49.500;7.764;2023-08-01T10:53:25;2.73;;;0.83;;
7432;SDS011;32233;49.500;7.764;2023-08-01T10:55:52;1.37;;;1.00;;
7432;SDS011;32233;49.500;7.764;2023-08-01T10:58:18;1.20;;;1.00;;
7432;SDS011;32233;49.500;7.764;2023-08-01T11:00:45;2.90;;;1.20;;
7432;SDS011;32233;49.500;7.764;2023-08-01T11:03:12;1.33;;;1.00;;
7432;SDS011;32233;49.500;7.764;2023-08-01T11:05:41;1.33;;;1.00;;
7432;SDS011;32233;49.500;7.764;2023-08-01T11:08:33;2.07;;;1.10;;
7432;SDS011;32233;49.500;7.764;2023-08-01T11:11:39;2.53;;;1.17;;
7432;SDS011;32233;49.500;7.764;2023-08-01T11:14:06;3.47;;;1.20;;
7432;SDS011;32233;49.500;7.764;2023-08-01T11:16:33;3.43;;;1.00;;
7432;SDS011;32233;49.500;7.764;2023-08-01T11:19:00;1.43;;;1.00;;
7432;SDS011;32233;49.500;7.764;2023-08-01T11:21:27;2.40;;;1.00;;
7432;SDS011;32233;49.500;7.764;2023-08-01T11:23:54;1.20;;;0.90;;
7432;SDS011;32233;49.500;7.764;2023-08-01T11:26:23;1.47;;;1.07;;
7432;SDS011;32233;49.500;7.764;2023-08-01T11:28:50;1.53;;;1.20;;
7432;SDS011;32233;49.500;7.764;2023-08-01T11:31:17;1.77;;;1.13;;
7432;SDS011;32233;49.500;7.764;2023-08-01T11:33:54;1.70;;;1.10;;
7432;SDS011;32233;49.500;7.764;2023-08-01T11:36:25;3.07;;;1.07;;
7432;SDS011;32233;49.500;7.764;2023-08-01T11:38:56;1.70;;;1.00;;
7432;SDS011;32233;49.500;7.764;2023-08-01T11:41:25;1.17;;;1.07;;
7432;SDS011;32233;49.500;7.764;2023-08-01T11:43:53;3.03;;;0.90;;
7432;SDS011;32233;49.500;7.764;2023-08-01T11:46:22;1.03;;;0.80;;
7432;SDS011;32233;49.500;7.764;2023-08-01T11:48:59;2.67;;;1.00;;
7432;SDS011;32233;49.500;7.764;2023-08-01T11:51:28;1.33;;;0.90;;
7432;SDS011;32233;49.500;7.764;2023-08-01T11:53:59;2.10;;;1.90;;
7432;SDS011;32233;49.500;7.764;2023-08-01T11:56:26;9.10;;;5.30;;
7432;SDS011;32233;49.500;7.764;2023-08-01T11:58:54;3.23;;;1.40;;
7432;SDS011;32233;49.500;7.764;2023-08-01T12:01:20;1.97;;;1.13;;
7432;SDS011;32233;49.500;7.764;2023-08-01T12:03:48;1.60;;;1.27;;
7432;SDS011;32233;49.500;7.764;2023-08-01T12:06:17;1.80;;;1.07;;
7432;SDS011;32233;49.500;7.764;2023-08-01T12:08:45;4.90;;;2.53;;
7432;SDS011;32233;49.500;7.764;2023-08-01T12:11:19;3.17;;;1.43;;
7432;SDS011;32233;49.500;7.764;2023-08-01T12:16:50;3.30;;;2.60;;
7432;SDS011;32233;49.500;7.764;2023-08-01T12:19:20;4.27;;;2.50;;
7432;SDS011;32233;49.500;7.764;2023-08-01T12:21:47;2.90;;;1.17;;
7432;SDS011;32233;49.500;7.764;2023-08-01T12:24:14;3.53;;;1.93;;
7432;SDS011;32233;49.500;7.764;2023-08-01T12:26:41;1.30;;;1.10;;
7432;SDS011;32233;49.500;7.764;2023-08-01T12:29:08;2.43;;;1.30;;
7432;SDS011;32233;49.500;7.764;2023-08-01T12:31:37;1.40;;;1.10;;
7432;SDS011;32233;49.500;7.764;2023-08-01T12:34:03;3.90;;;1.47;;
7432;SDS011;32233;49.500;7.764;2023-08-01T12:36:30;1.20;;;1.03;;
7432;SDS011;32233;49.500;7.764;2023-08-01T12:38:57;1.90;;;1.43;;
7432;SDS011;32233;49.500;7.764;2023-08-01T12:41:23;2.80;;;1.30;;
7432;SDS011;32233;49.500;7.764;2023-08-01T12:43:50;1.57;;;1.43;;
7432;SDS011;32233;49.500;7.764;2023-08-01T12:46:16;1.53;;;1.30;;
7432;SDS011;32233;49.500;7.764;2023-08-01T12:48:43;3.83;;;1.53;;
7432;SDS011;32233;49.500;7.764;2023-08-01T12:51:10;2.67;;;1.30;;
7432;SDS011;32233;49.500;7.764;2023-08-01T12:53:37;1.53;;;1.20;;
7432;SDS011;32233;49.500;7.764;2023-08-01T12:56:10;1.40;;;1.10;;
7432;SDS011;32233;49.500;7.764;2023-08-01T12:58:37;3.57;;;1.30;;
7432;SDS011;32233;49.500;7.764;2023-08-01T13:01:03;3.07;;;1.60;;
7432;SDS011;32233;49.500;7.764;2023-08-01T13:03:30;3.77;;;1.40;;
7432;SDS011;32233;49.500;7.764;2023-08-01T13:05:57;1.40;;;1.20;;
7432;SDS011;32233;49.500;7.764;2023-08-01T13:08:24;2.50;;;1.30;;
7432;SDS011;32233;49.500;7.764;2023-08-01T13:10:51;2.00;;;1.00;;
7432;SDS011;32233;49.500;7.764;2023-08-01T13:13:18;2.10;;;1.13;;
7432;SDS011;32233;49.500;7.764;2023-08-01T13:15:49;3.23;;;1.13;;
7432;SDS011;32233;49.500;7.764;2023-08-01T13:18:20;1.40;;;1.10;;
7432;SDS011;32233;49.500;7.764;2023-08-01T13:20:49;2.27;;;1.20;;
7432;SDS011;32233;49.500;7.764;2023-08-01T13:23:17;2.07;;;1.40;;
7432;SDS011;32233;49.500;7.764;2023-08-01T13:25:44;2.73;;;1.30;;
7432;SDS011;32233;49.500;7.764;2023-08-01T13:28:13;1.50;;;1.20;;
7432;SDS011;32233;49.500;7.764;2023-08-01T13:30:39;2.53;;;1.20;;
7432;SDS011;32233;49.500;7.764;2023-08-01T13:33:09;2.73;;;1.17;;
7432;SDS011;32233;49.500;7.764;2023-08-01T13:35:36;3.60;;;1.50;;
7432;SDS011;32233;49.500;7.764;2023-08-01T13:38:03;2.03;;;1.10;;
7432;SDS011;32233;49.500;7.764;2023-08-01T13:40:31;2.30;;;1.13;;
7432;SDS011;32233;49.500;7.764;2023-08-01T13:42:58;1.50;;;1.10;;
7432;SDS011;32233;49.500;7.764;2023-08-01T13:45:32;1.40;;;1.00;;
7432;SDS011;32233;49.500;7.764;2023-08-01T13:47:58;2.57;;;1.00;;
7432;SDS011;32233;49.500;7.764;2023-08-01T13:50:25;1.10;;;1.00;;
7432;SDS011;32233;49.500;7.764;2023-08-01T13:52:55;3.23;;;1.00;;
7432;SDS011;32233;49.500;7.764;2023-08-01T13:55:21;2.83;;;0.90;;
7432;SDS011;32233;49.500;7.764;2023-08-01T13:57:48;2.23;;;0.90;;
7432;SDS011;32233;49.500;7.764;2023-08-01T14:00:15;1.97;;;1.00;;
7432;SDS011;32233;49.500;7.764;2023-08-01T14:02:43;4.00;;;1.00;;
7432;SDS011;32233;49.500;7.764;2023-08-01T14:05:10;3.10;;;1.00;;
7432;SDS011;32233;49.500;7.764;2023-08-01T14:07:37;1.50;;;1.03;;
7432;SDS011;32233;49.500;7.764;2023-08-01T14:10:07;1.40;;;1.00;;
7432;SDS011;32233;49.500;7.764;2023-08-01T14:12:35;2.90;;;0.77;;
7432;SDS011;32233;49.500;7.764;2023-08-01T14:15:02;1.47;;;0.90;;
7432;SDS011;32233;49.500;7.764;2023-08-01T14:17:29;1.50;;;0.80;;
7432;SDS011;32233;49.500;7.764;2023-08-01T14:19:55;2.83;;;0.80;;
7432;SDS011;32233;49.500;7.764;2023-08-01T14:22:22;4.50;;;0.83;;
7432;SDS011;32233;49.500;7.764;2023-08-01T14:24:49;3.13;;;1.03;;
7432;SDS011;32233;49.500;7.764;2023-08-01T14:27:16;2.70;;;1.13;;
7432;SDS011;32233;49.500;7.764;2023-08-01T14:29:42;1.67;;;0.80;;
7432;SDS011;32233;49.500;7.764;2023-08-01T14:32:09;3.00;;;0.90;;
7432;SDS011;32233;49.500;7.764;2023-08-01T14:34:35;1.73;;;0.90;;
7432;SDS011;32233;49.500;7.764;2023-08-01T14:37:02;1.37;;;0.90;;
7432;SDS011;32233;49.500;7.764;2023-08-01T14:39:29;1.87;;;0.90;;
7432;SDS011;32233;49.500;7.764;2023-08-01T14:41:56;2.23;;;1.20;;
7432;SDS011;32233;49.500;7.764;2023-08-01T14:44:25;2.73;;;1.03;;
7432;SDS011;32233;49.500;7.764;2023-08-01T14:46:52;1.40;;;1.03;;
7432;SDS011;32233;49.500;7.764;2023-08-01T14:49:21;1.50;;;1.10;;
7432;SDS011;32233;49.500;7.764;2023-08-01T14:51:50;2.20;;;0.97;;
7432;SDS011;32233;49.500;7.764;2023-08-01T14:54:16;1.77;;;0.90;;
7432;SDS011;32233;49.500;7.764;2023-08-01T14:57:03;2.70;;;1.13;;
7432;SDS011;32233;49.500;7.764;2023-08-01T14:59:31;1.37;;;1.00;;
7432;SDS011;32233;49.500;7.764;2023-08-01T15:01:57;1.87;;;1.20;;
7432;SDS011;32233;49.500;7.764;2023-08-01T15:04:24;1.90;;;1.10;;